Time;durP1;ratioP1;P1;durP2;ratioP2;P2;SDS_P1;SDS_P2;PMS_P1;PMS_P2;Temp;Humidity;BMP_temperature;BMP_pressure;BME280_temperature;BME280_humidity;BME280_pressure;Samples;Min_cycle;Max_cycle;Signal;HPM_P1;HPM_P2
2022/12/20 00:01:50;;;;;;;1.83;1.33;;;14.60;63.40;;;;;;5054289;28;20047;-57
2022/12/20 00:04:20;;;;;;;2.35;1.45;;;14.60;63.40;;;;;;5059530;28;20428;-56
2022/12/20 00:06:46;;;;;;;1.15;1.05;;;14.60;63.30;;;;;;5071393;28;20036;-56
2022/12/20 00:09:19;;;;;;;1.60;0.87;;;14.60;63.30;;;;;;5060352;28;20041;-55
2022/12/20 00:11:46;;;;;;;1.00;0.90;;;14.60;63.20;;;;;;5067404;28;20044;-56
2022/12/20 00:14:12;;;;;;;1.23;0.95;;;14.60;63.20;;;;;;5065786;28;20131;-56
2022/12/20 00:16:39;;;;;;;1.42;1.08;;;14.70;63.30;;;;;;5071475;28;20063;-55
2022/12/20 00:19:10;;;;;;;1.25;1.00;;;14.60;63.20;;;;;;5054511;28;20044;-55
2022/12/20 00:21:39;;;;;;;1.63;1.52;;;14.60;63.10;;;;;;5056748;28;20536;-56
2022/12/20 00:24:11;;;;;;;1.38;1.10;;;14.70;63.10;;;;;;5053174;28;20406;-56
2022/12/20 00:26:41;;;;;;;;;;;14.70;63.00;;;;;;5031954;28;20064;-56
2022/12/20 00:29:08;;;;;;;4.47;1.08;;;14.80;63.20;;;;;;5032898;28;20419;-56
2022/12/20 00:31:42;;;;;;;;;;;14.70;63.00;;;;;;5046972;28;20047;-55
2022/12/20 00:34:09;;;;;;;1.20;1.10;;;14.80;63.00;;;;;;5043497;28;19974;-56
2022/12/20 00:36:38;;;;;;;2.05;1.00;;;14.80;62.90;;;;;;5070973;28;20052;-56
2022/12/20 00:39:10;;;;;;;2.33;0.93;;;14.80;62.70;;;;;;5050105;28;20090;-56
2022/12/20 00:41:39;;;;;;;1.45;1.25;;;14.80;62.60;;;;;;5059691;28;20109;-55
2022/12/20 00:44:08;;;;;;;2.10;1.27;;;14.80;62.60;;;;;;5064696;28;20064;-56
2022/12/20 00:46:34;;;;;;;1.83;1.33;;;14.90;62.60;;;;;;5052170;28;20043;-55
2022/12/20 00:49:01;;;;;;;1.60;1.05;;;14.90;62.50;;;;;;5053518;28;20127;-56
2022/12/20 00:51:31;;;;;;;1.52;1.08;;;14.90;62.50;;;;;;5057035;28;20064;-56
2022/12/20 00:53:58;;;;;;;2.28;1.42;;;14.90;62.40;;;;;;5062895;28;20090;-56
2022/12/20 00:56:32;;;;;;;1.27;1.20;;;14.90;62.30;;;;;;5064045;28;20041;-57
2022/12/20 00:59:02;;;;;;;1.88;1.75;;;14.90;62.20;;;;;;5059498;28;20404;-56
2022/12/20 01:01:30;;;;;;;1.35;1.20;;;14.90;62.20;;;;;;5045052;28;20060;-56
2022/12/20 01:03:59;;;;;;;2.05;1.45;;;15.00;62.20;;;;;;5068083;28;20043;-55
2022/12/20 01:06:32;;;;;;;1.88;1.15;;;15.00;62.10;;;;;;5051988;28;20044;-55
2022/12/20 01:09:00;;;;;;;1.98;1.35;;;15.00;62.00;;;;;;5060307;28;20036;-54
2022/12/20 01:11:30;;;;;;;1.08;0.98;;;15.00;62.00;;;;;;5047288;22;20046;-52
2022/12/20 01:14:04;;;;;;;1.67;1.20;;;15.00;61.90;;;;;;5012364;28;20099;-52
2022/12/20 01:16:40;;;;;;;1.67;1.38;;;15.00;61.90;;;;;;4999747;28;20157;-53
2022/12/20 01:19:09;;;;;;;1.27;1.27;;;15.00;61.60;;;;;;5002355;28;20045;-55
2022/12/20 01:21:43;;;;;;;4.15;1.88;;;15.00;61.90;;;;;;5033951;28;20046;-51
2022/12/20 01:24:18;;;;;;;1.35;1.10;;;15.10;61.90;;;;;;5010196;28;20033;-52
2022/12/20 01:26:47;;;;;;;2.00;1.13;;;15.10;61.90;;;;;;5030699;28;20470;-55
2022/12/20 01:29:14;;;;;;;2.38;1.58;;;15.10;61.90;;;;;;5030164;28;20049;-53
2022/12/20 01:31:42;;;;;;;1.27;1.17;;;15.10;62.60;;;;;;5026394;28;20063;-54
2022/12/20 01:34:09;;;;;;;2.00;1.60;;;15.00;61.80;;;;;;5035021;28;20045;-56
2022/12/20 01:36:39;;;;;;;1.42;1.33;;;15.00;61.80;;;;;;5016018;28;20133;-53
2022/12/20 01:39:12;;;;;;;1.20;1.10;;;15.00;61.80;;;;;;5023654;28;20032;-52
2022/12/20 01:41:44;;;;;;;1.35;1.05;;;15.10;61.80;;;;;;5032549;28;20501;-54
2022/12/20 01:44:17;;;;;;;2.97;1.58;;;15.00;61.80;;;;;;5012581;28;20100;-51
2022/12/20 01:46:46;;;;;;;3.05;1.50;;;15.00;61.60;;;;;;5038560;28;20037;-52
2022/12/20 01:49:18;;;;;;;2.38;1.55;;;15.00;61.80;;;;;;5044565;28;20045;-55
2022/12/20 01:51:53;;;;;;;1.40;1.02;;;15.00;61.90;;;;;;5014921;28;20437;-52
2022/12/20 01:54:38;;;;;;;1.85;1.50;;;15.00;61.80;;;;;;5026090;28;20123;-54
2022/12/20 01:57:13;;;;;;;1.35;1.17;;;15.00;61.50;;;;;;5038276;28;20036;-53
2022/12/20 01:59:43;;;;;;;2.83;1.48;;;15.00;61.80;;;;;;5020768;28;20038;-55
2022/12/20 02:02:11;;;;;;;1.42;1.30;;;15.00;61.90;;;;;;5009368;28;20125;-52
2022/12/20 02:04:41;;;;;;;1.35;1.15;;;15.00;61.90;;;;;;5034607;28;20390;-53
2022/12/20 02:07:11;;;;;;;1.30;1.20;;;15.00;62.00;;;;;;5041662;28;20040;-52
2022/12/20 02:09:44;;;;;;;2.10;1.30;;;15.00;62.30;;;;;;5032097;28;20480;-53
2022/12/20 02:12:24;;;;;;;2.15;1.13;;;15.00;62.40;;;;;;5029901;28;20124;-53
2022/12/20 02:15:19;;;;;;;1.55;1.02;;;15.00;62.70;;;;;;5030402;28;20045;-50
2022/12/20 02:18:04;;;;;;;1.33;0.95;;;15.00;62.70;;;;;;5048453;28;20052;-54
2022/12/20 02:21:08;;;;;;;1.30;1.17;;;15.00;62.70;;;;;;5018177;28;20046;-51
2022/12/20 02:23:38;;;;;;;1.27;1.10;;;15.00;62.90;;;;;;5043959;28;20040;-51
2022/12/20 02:26:27;;;;;;;1.92;1.33;;;15.00;63.00;;;;;;5011778;28;20465;-54
2022/12/20 02:29:13;;;;;;;1.35;1.25;;;14.90;63.00;;;;;;5027124;28;20041;-54
2022/12/20 02:32:21;;;;;;;2.85;1.20;;;14.90;63.10;;;;;;5019244;28;20087;-53
2022/12/20 02:34:50;;;;;;;1.92;1.30;;;14.90;63.20;;;;;;5011704;28;20052;-53
2022/12/20 02:37:17;;;;;;;2.00;1.50;;;14.80;63.30;;;;;;5011970;28;20049;-53
2022/12/20 02:39:47;;;;;;;1.73;1.30;;;14.80;63.40;;;;;;5030520;28;20068;-52
2022/12/20 02:42:18;;;;;;;2.22;1.25;;;14.80;63.60;;;;;;5006324;28;20041;-54
2022/12/20 02:45:16;;;;;;;1.50;1.40;;;14.70;63.90;;;;;;5029939;28;20095;-55
2022/12/20 02:47:50;;;;;;;1.60;1.50;;;14.70;64.00;;;;;;5032487;28;20140;-53
2022/12/20 02:50:33;;;;;;;1.10;1.10;;;14.70;64.10;;;;;;5010753;28;20042;-50
2022/12/20 02:53:02;;;;;;;4.05;1.27;;;14.70;64.30;;;;;;5037375;28;20473;-54
2022/12/20 02:55:51;;;;;;;1.48;1.38;;;14.60;64.40;;;;;;5020878;28;20046;-54
2022/12/20 02:58:30;;;;;;;1.77;1.48;;;14.60;64.90;;;;;;5034610;28;20041;-54
2022/12/20 03:01:05;;;;;;;1.52;1.35;;;14.60;65.00;;;;;;5018285;28;20163;-50
2022/12/20 03:03:34;;;;;;;1.75;1.65;;;14.60;65.00;;;;;;5031283;28;20124;-54
2022/12/20 03:06:03;;;;;;;1.90;1.70;;;14.50;65.10;;;;;;5032590;28;20053;-52
2022/12/20 03:08:30;;;;;;;1.35;1.25;;;14.50;65.20;;;;;;5012168;28;20666;-51
2022/12/20 03:10:57;;;;;;;2.20;1.38;;;14.50;65.40;;;;;;5025017;28;20041;-53
2022/12/20 03:13:28;;;;;;;1.25;1.15;;;14.40;65.40;;;;;;5020562;28;20051;-55
2022/12/20 03:16:00;;;;;;;2.10;1.48;;;14.40;65.50;;;;;;5021679;28;20461;-54
2022/12/20 03:18:27;;;;;;;2.30;1.42;;;14.40;65.50;;;;;;5018055;28;20059;-55
2022/12/20 03:20:54;;;;;;;2.63;1.90;;;14.30;65.60;;;;;;5044487;28;20040;-54
2022/12/20 03:23:28;;;;;;;1.77;1.30;;;14.30;65.60;;;;;;5022163;28;20033;-53
2022/12/20 03:25:58;;;;;;;2.60;1.42;;;14.30;65.70;;;;;;5012188;28;20046;-54
2022/12/20 03:28:36;;;;;;;3.38;1.95;;;14.30;65.70;;;;;;5022058;28;20137;-53
2022/12/20 03:31:05;;;;;;;2.75;1.33;;;14.30;65.90;;;;;;5026762;28;20068;-53
2022/12/20 03:33:45;;;;;;;2.22;1.55;;;14.30;65.90;;;;;;5033293;28;20061;-54
2022/12/20 03:36:14;;;;;;;1.70;1.60;;;14.20;65.90;;;;;;5022157;28;20129;-52
2022/12/20 03:38:42;;;;;;;2.42;1.65;;;14.20;65.90;;;;;;5028611;28;20155;-54
2022/12/20 03:41:08;;;;;;;1.77;1.65;;;14.20;66.00;;;;;;5025555;28;20046;-50
2022/12/20 03:43:36;;;;;;;2.33;1.75;;;14.20;66.10;;;;;;5018599;28;20041;-54
2022/12/20 03:46:03;;;;;;;1.75;1.60;;;14.20;66.20;;;;;;5011944;28;20056;-55
2022/12/20 03:48:37;;;;;;;2.80;2.20;;;14.20;66.30;;;;;;5043928;28;20044;-52
2022/12/20 03:51:04;;;;;;;2.15;1.77;;;14.20;66.50;;;;;;5015547;28;20076;-52
2022/12/20 03:53:34;;;;;;;2.53;1.85;;;14.20;66.70;;;;;;5014560;28;20259;-54
2022/12/20 03:56:01;;;;;;;1.55;1.38;;;14.20;66.70;;;;;;5013821;28;20575;-50
2022/12/20 03:58:29;;;;;;;2.38;1.40;;;14.20;66.80;;;;;;5015849;28;20041;-55
2022/12/20 04:00:58;;;;;;;6.07;1.70;;;14.20;67.00;;;;;;5010131;28;20048;-54
2022/12/20 04:03:40;;;;;;;1.52;1.42;;;14.10;67.10;;;;;;5012601;28;20057;-57
2022/12/20 04:06:10;;;;;;;2.28;1.70;;;14.10;67.30;;;;;;5029962;28;20099;-55
2022/12/20 04:08:37;;;;;;;1.75;1.60;;;14.10;67.40;;;;;;5014308;28;20049;-51
2022/12/20 04:11:16;;;;;;;3.92;1.50;;;14.10;67.60;;;;;;5016283;28;20046;-54
2022/12/20 04:13:51;;;;;;;2.40;1.48;;;14.10;67.80;;;;;;5008619;28;20049;-56
2022/12/20 04:16:22;;;;;;;1.85;1.50;;;14.10;68.00;;;;;;5014067;28;20047;-56
2022/12/20 04:18:49;;;;;;;2.50;1.38;;;14.00;68.20;;;;;;5009475;28;20045;-52
2022/12/20 04:21:24;;;;;;;2.67;1.60;;;14.00;68.20;;;;;;5011278;28;20034;-52
2022/12/20 04:23:52;;;;;;;3.33;1.98;;;14.00;68.50;;;;;;5005722;28;20050;-51
2022/12/20 04:26:23;;;;;;;2.83;2.20;;;14.00;68.40;;;;;;5051231;28;20390;-55
2022/12/20 04:28:55;;;;;;;1.70;1.58;;;14.00;68.50;;;;;;5017612;28;20049;-56
2022/12/20 04:31:22;;;;;;;1.60;1.50;;;14.00;68.60;;;;;;5051652;28;20052;-50
2022/12/20 04:33:52;;;;;;;2.97;1.80;;;14.00;68.70;;;;;;5009228;28;20064;-51
2022/12/20 04:36:22;;;;;;;2.00;1.73;;;13.90;68.80;;;;;;5021261;28;20128;-55
2022/12/20 04:38:52;;;;;;;1.73;1.60;;;14.00;68.80;;;;;;5021798;28;20042;-55
2022/12/20 04:41:27;;;;;;;1.70;1.50;;;14.00;68.80;;;;;;5018303;28;20125;-56
2022/12/20 04:43:59;;;;;;;4.47;1.80;;;13.90;68.80;;;;;;5009845;28;20041;-55
2022/12/20 04:46:34;;;;;;;3.78;2.00;;;13.90;68.80;;;;;;5021563;28;20049;-54
2022/12/20 04:49:01;;;;;;;4.10;2.28;;;14.00;69.00;;;;;;5012595;28;20049;-51
2022/12/20 04:51:31;;;;;;;1.83;1.67;;;13.90;69.00;;;;;;5009059;28;20399;-51
2022/12/20 04:53:59;;;;;;;2.50;1.80;;;13.90;69.10;;;;;;5018524;28;20099;-54
2022/12/20 04:56:39;;;;;;;2.58;1.50;;;13.90;69.10;;;;;;5021006;28;20049;-52
2022/12/20 04:59:12;;;;;;;4.07;1.92;;;13.90;69.10;;;;;;5011700;28;20042;-51
2022/12/20 05:01:41;;;;;;;1.65;1.55;;;13.90;69.00;;;;;;5009133;28;20049;-53
2022/12/20 05:04:15;;;;;;;2.53;1.48;;;13.90;69.00;;;;;;5009128;28;20034;-54
2022/12/20 05:06:47;;;;;;;1.20;1.10;;;13.90;69.00;;;;;;5040755;28;20166;-54
2022/12/20 05:09:16;;;;;;;3.03;1.52;;;13.90;68.90;;;;;;5031873;28;20033;-52
2022/12/20 05:11:44;;;;;;;1.35;1.25;;;13.90;68.90;;;;;;5014351;28;20090;-53
2022/12/20 05:14:17;;;;;;;1.83;1.45;;;13.90;68.90;;;;;;5015749;28;20100;-53
2022/12/20 05:16:44;;;;;;;1.48;1.25;;;13.90;68.70;;;;;;5049859;28;20447;-53
2022/12/20 05:19:11;;;;;;;2.05;1.63;;;13.90;68.70;;;;;;5021398;28;20042;-53
2022/12/20 05:27:22;;;;;;;3.08;1.67;;;13.90;68.50;;;;;;5024244;28;20065;-50
2022/12/20 05:29:49;;;;;;;2.50;1.50;;;13.90;68.40;;;;;;5020171;28;20052;-53
2022/12/20 05:32:16;;;;;;;2.05;1.15;;;13.90;68.30;;;;;;5027520;28;20515;-54
2022/12/20 05:34:43;;;;;;;1.95;1.80;;;13.90;68.20;;;;;;5031851;28;20167;-53
2022/12/20 05:37:11;;;;;;;1.83;1.10;;;13.90;68.10;;;;;;5015904;28;20653;-50
2022/12/20 05:39:40;;;;;;;2.75;1.30;;;13.90;68.00;;;;;;5017591;28;20049;-51
2022/12/20 05:42:13;;;;;;;2.60;1.35;;;13.90;68.00;;;;;;5020127;28;20526;-52
2022/12/20 05:44:39;;;;;;;1.38;1.27;;;13.90;67.90;;;;;;5030127;28;20052;-54
2022/12/20 05:47:09;;;;;;;2.35;1.58;;;13.90;67.80;;;;;;5031716;28;20523;-54
2022/12/20 05:49:37;;;;;;;1.75;1.45;;;13.90;67.70;;;;;;5016220;28;20044;-52
2022/12/20 05:52:16;;;;;;;1.88;1.17;;;13.90;67.50;;;;;;5041385;28;20052;-51
2022/12/20 05:54:46;;;;;;;1.38;1.27;;;14.00;67.50;;;;;;5028051;28;20045;-51
2022/12/20 05:57:19;;;;;;;1.67;1.10;;;14.00;67.40;;;;;;5019613;28;20041;-53
2022/12/20 05:59:49;;;;;;;1.38;1.27;;;14.00;67.20;;;;;;5031464;28;20038;-54
2022/12/20 06:02:20;;;;;;;1.40;1.30;;;14.00;67.10;;;;;;5027870;28;20041;-52
2022/12/20 06:04:51;;;;;;;1.30;1.13;;;14.10;67.00;;;;;;5031549;28;20395;-54
2022/12/20 06:07:23;;;;;;;1.00;0.93;;;14.10;66.80;;;;;;5017653;28;20096;-52
2022/12/20 06:09:55;;;;;;;2.38;1.88;;;14.10;66.80;;;;;;5024414;28;20041;-53
2022/12/20 06:12:29;;;;;;;1.08;0.98;;;14.10;66.60;;;;;;5014453;28;20056;-55
2022/12/20 06:14:57;;;;;;;2.85;1.35;;;14.10;66.50;;;;;;5010852;28;20648;-51
2022/12/20 06:17:28;;;;;;;1.73;1.30;;;14.20;66.50;;;;;;5015917;28;20085;-53
2022/12/20 06:19:55;;;;;;;1.98;1.10;;;14.20;66.40;;;;;;5022792;28;20049;-54
2022/12/20 06:22:25;;;;;;;1.83;0.95;;;14.20;66.30;;;;;;5012520;28;20045;-54
2022/12/20 06:24:58;;;;;;;2.13;1.50;;;14.20;66.20;;;;;;5002187;28;20107;-54
2022/12/20 06:27:29;;;;;;;1.67;1.33;;;14.20;66.20;;;;;;5012646;28;20069;-54
2022/12/20 06:30:10;;;;;;;2.08;1.17;;;14.30;66.20;;;;;;5020259;28;20060;-54
2022/12/20 06:32:55;;;;;;;1.40;1.00;;;14.20;66.00;;;;;;5031556;28;20049;-54
2022/12/20 06:35:24;;;;;;;2.67;1.20;;;14.30;66.00;;;;;;5018260;28;20128;-53
2022/12/20 06:37:54;;;;;;;2.25;1.45;;;14.30;65.90;;;;;;5014544;28;20137;-52
2022/12/20 06:40:24;;;;;;;2.63;1.17;;;14.30;65.80;;;;;;5008212;28;20046;-56
2022/12/20 06:42:52;;;;;;;2.28;1.10;;;14.20;65.60;;;;;;5017731;28;20064;-55
2022/12/20 06:45:21;;;;;;;1.02;0.70;;;14.30;65.70;;;;;;5018644;28;20087;-52
2022/12/20 06:47:48;;;;;;;1.70;0.93;;;14.30;65.60;;;;;;5026415;28;20045;-55
2022/12/20 06:50:15;;;;;;;1.35;1.25;;;14.30;65.60;;;;;;5012382;28;20498;-51
2022/12/20 06:52:42;;;;;;;2.17;1.50;;;14.30;65.50;;;;;;5013788;28;20054;-51
2022/12/20 06:55:09;;;;;;;1.55;1.13;;;14.30;65.40;;;;;;5007171;28;20042;-55
2022/12/20 06:57:38;;;;;;;3.05;1.00;;;14.30;65.30;;;;;;5031569;28;20444;-51
2022/12/20 07:00:11;;;;;;;2.67;1.05;;;14.30;65.30;;;;;;5015183;28;20480;-48
2022/12/20 07:02:42;;;;;;;2.83;1.13;;;14.30;65.20;;;;;;5026417;28;20133;-48
2022/12/20 07:05:13;;;;;;;1.13;0.98;;;14.40;65.10;;;;;;5031621;28;20133;-48
2022/12/20 07:07:40;;;;;;;1.52;1.33;;;14.50;65.10;;;;;;5031429;28;20065;-48
2022/12/20 07:10:13;;;;;;;1.40;1.30;;;14.40;65.00;;;;;;5031785;28;20870;-48
2022/12/20 07:12:41;;;;;;;1.70;1.10;;;14.40;64.90;;;;;;5008669;28;20156;-48
2022/12/20 07:15:14;;;;;;;1.13;0.90;;;14.40;64.80;;;;;;5038455;28;20044;-50
2022/12/20 07:17:40;;;;;;;1.08;0.98;;;14.40;64.70;;;;;;5032695;28;20034;-48
2022/12/20 07:20:08;;;;;;;1.23;1.13;;;14.40;64.60;;;;;;5031056;28;20099;-53
2022/12/20 07:22:54;;;;;;;3.35;1.20;;;14.40;64.50;;;;;;5021976;28;20514;-51
2022/12/20 07:25:21;;;;;;;1.20;1.10;;;14.40;64.40;;;;;;5025540;28;20063;-49
2022/12/20 07:27:48;;;;;;;2.45;1.67;;;14.40;64.30;;;;;;5031369;28;20475;-49
2022/12/20 07:30:17;;;;;;;1.20;1.08;;;14.50;64.40;;;;;;5025308;28;20429;-54
2022/12/20 07:32:44;;;;;;;2.22;1.40;;;14.50;64.30;;;;;;5032844;28;20058;-48
2022/12/20 07:35:11;;;;;;;1.20;0.80;;;14.50;64.10;;;;;;5029787;28;20044;-48
2022/12/20 07:37:38;;;;;;;2.45;1.10;;;14.50;64.10;;;;;;5029478;28;20037;-50
2022/12/20 07:40:06;;;;;;;1.88;1.27;;;14.50;64.10;;;;;;5029731;28;20096;-49
2022/12/20 07:42:35;;;;;;;1.92;1.42;;;14.50;64.00;;;;;;5033222;28;20109;-49
2022/12/20 07:45:07;;;;;;;1.20;1.08;;;14.50;64.00;;;;;;5031511;28;20045;-51
2022/12/20 07:47:34;;;;;;;2.72;1.10;;;14.50;64.00;;;;;;5031060;28;20525;-52
2022/12/20 07:50:02;;;;;;;3.25;1.17;;;14.60;64.00;;;;;;5032511;28;20041;-51
2022/12/20 07:52:31;;;;;;;2.10;0.95;;;14.60;64.00;;;;;;5032945;28;20448;-52
2022/12/20 07:55:01;;;;;;;1.40;1.30;;;14.60;63.80;;;;;;5029858;28;20036;-49
2022/12/20 07:57:38;;;;;;;1.20;1.10;;;14.60;63.70;;;;;;5023667;28;20037;-53
2022/12/20 08:00:06;;;;;;;1.40;1.30;;;14.70;63.60;;;;;;5045375;28;20110;-50
2022/12/20 08:02:58;;;;;;;1.10;1.10;;;14.70;64.40;;;;;;5040133;28;20122;-50
2022/12/20 08:05:25;;;;;;;1.10;1.00;;;14.70;63.30;;;;;;5029569;28;20041;-50
2022/12/20 08:07:53;;;;;;;2.05;1.30;;;14.70;63.50;;;;;;5026519;28;20065;-51
2022/12/20 08:10:26;;;;;;;2.47;1.20;;;14.80;63.50;;;;;;5039047;28;20040;-49
2022/12/20 08:12:54;;;;;;;1.42;0.98;;;14.80;63.40;;;;;;5043369;28;20037;-50
2022/12/20 08:15:21;;;;;;;2.70;1.30;;;14.80;63.30;;;;;;5051337;28;20053;-52
2022/12/20 08:17:51;;;;;;;1.92;1.10;;;14.80;63.30;;;;;;5039868;28;20041;-49
2022/12/20 08:20:17;;;;;;;1.90;1.10;;;14.80;63.20;;;;;;5073450;22;20115;-57
2022/12/20 08:22:44;;;;;;;1.15;0.85;;;14.80;63.20;;;;;;5035779;28;20038;-57
2022/12/20 08:25:11;;;;;;;3.10;1.20;;;14.90;63.20;;;;;;5050730;28;20039;-57
2022/12/20 08:27:38;;;;;;;2.63;1.00;;;14.90;63.10;;;;;;5040931;28;20033;-59
2022/12/20 08:30:07;;;;;;;1.00;0.90;;;14.90;63.00;;;;;;5035207;28;20102;-57
2022/12/20 08:32:33;;;;;;;1.27;1.08;;;14.90;62.90;;;;;;5029133;28;20056;-54
2022/12/20 08:35:00;;;;;;;1.45;1.00;;;15.00;62.90;;;;;;5042404;28;20043;-57
2022/12/20 08:37:27;;;;;;;2.60;1.27;;;15.00;62.80;;;;;;5038758;28;20061;-57
2022/12/20 08:39:53;;;;;;;2.03;1.52;;;15.00;62.80;;;;;;5045417;28;20120;-58
2022/12/20 08:42:21;;;;;;;2.53;1.27;;;15.00;62.70;;;;;;5036831;28;20037;-57
2022/12/20 08:44:47;;;;;;;2.78;1.00;;;15.00;62.60;;;;;;5041481;28;20688;-55
2022/12/20 08:47:14;;;;;;;1.10;1.00;;;15.10;62.60;;;;;;5040065;28;20041;-58
2022/12/20 08:49:42;;;;;;;1.75;1.02;;;15.10;62.60;;;;;;5038476;28;20037;-56
2022/12/20 08:52:13;;;;;;;4.10;1.57;;;15.10;62.60;;;;;;5030664;28;20029;-57
2022/12/20 08:54:40;;;;;;;0.95;0.95;;;15.10;62.50;;;;;;5039539;28;20764;-57
2022/12/20 08:57:07;;;;;;;1.35;0.90;;;15.10;62.50;;;;;;5036387;28;20044;-58
2022/12/20 08:59:34;;;;;;;1.33;1.15;;;15.10;62.50;;;;;;5034451;28;20041;-57
2022/12/20 09:02:01;;;;;;;1.42;0.88;;;15.10;62.60;;;;;;5041266;28;20041;-56
2022/12/20 09:04:30;;;;;;;1.08;1.00;;;15.10;62.70;;;;;;5036374;28;20095;-57
2022/12/20 09:06:57;;;;;;;2.33;1.00;;;15.10;62.60;;;;;;5043673;28;20037;-56
2022/12/20 09:09:23;;;;;;;2.60;1.98;;;15.10;62.60;;;;;;5042191;28;20468;-58
2022/12/20 09:11:50;;;;;;;2.17;1.00;;;15.10;62.50;;;;;;5023891;28;20548;-57
2022/12/20 09:14:18;;;;;;;1.90;0.98;;;15.10;62.50;;;;;;5028804;28;20048;-56
2022/12/20 09:16:44;;;;;;;1.67;1.00;;;15.10;62.40;;;;;;5035542;28;20053;-57
2022/12/20 09:19:12;;;;;;;1.02;0.85;;;15.10;62.50;;;;;;5036721;28;20041;-57
2022/12/20 09:21:39;;;;;;;1.25;0.90;;;15.10;62.50;;;;;;5049358;28;20527;-56
2022/12/20 09:24:07;;;;;;;2.17;0.95;;;15.20;62.60;;;;;;5037864;28;20670;-57
2022/12/20 09:26:34;;;;;;;1.48;0.88;;;15.10;62.50;;;;;;5038004;28;20045;-57
2022/12/20 09:29:01;;;;;;;2.00;1.10;;;15.20;62.60;;;;;;5033606;28;20069;-58
2022/12/20 09:31:28;;;;;;;1.52;1.05;;;15.20;62.60;;;;;;5050342;28;20036;-58
2022/12/20 09:33:56;;;;;;;1.50;1.10;;;15.20;62.50;;;;;;5041908;28;20049;-58
2022/12/20 09:36:25;;;;;;;0.75;0.75;;;15.20;62.40;;;;;;5050703;28;20041;-58
2022/12/20 09:38:53;;;;;;;1.25;0.88;;;15.20;63.10;;;;;;5049639;28;20068;-57
2022/12/20 09:41:43;;;;;;;1.38;1.27;;;15.30;62.40;;;;;;5036067;28;20116;-57
2022/12/20 09:44:25;;;;;;;1.38;0.95;;;15.30;62.10;;;;;;5039795;28;20034;-58
2022/12/20 09:47:00;;;;;;;1.65;1.10;;;15.30;62.10;;;;;;5036535;28;20044;-58
2022/12/20 09:49:39;;;;;;;1.17;1.10;;;15.40;62.20;;;;;;5047484;28;20055;-57
2022/12/20 09:52:30;;;;;;;2.50;1.02;;;15.30;62.20;;;;;;5041786;28;20120;-57
2022/12/20 09:55:09;;;;;;;1.70;1.00;;;15.40;62.30;;;;;;5032395;28;20037;-57
2022/12/20 09:58:14;;;;;;;2.65;1.20;;;15.40;62.30;;;;;;5048061;28;20049;-57
2022/12/20 10:00:45;;;;;;;3.25;1.10;;;15.40;62.20;;;;;;5035117;28;20076;-58
2022/12/20 10:03:31;;;;;;;1.13;0.82;;;15.40;63.10;;;;;;5046387;28;20033;-57
2022/12/20 10:06:04;;;;;;;0.80;0.73;;;15.40;62.40;;;;;;5042734;28;20033;-57
2022/12/20 10:08:51;;;;;;;1.80;0.90;;;15.40;62.60;;;;;;5044190;28;20095;-58
2022/12/20 10:11:42;;;;;;;1.10;1.00;;;15.40;62.40;;;;;;5039010;28;20104;-58
2022/12/20 10:14:34;;;;;;;1.95;0.90;;;15.40;62.70;;;;;;5041589;28;20037;-59
2022/12/20 10:17:31;;;;;;;1.15;1.00;;;15.40;62.70;;;;;;5042875;28;20142;-58
2022/12/20 10:20:21;;;;;;;1.90;1.30;;;15.40;62.70;;;;;;4997309;28;20733;-56
2022/12/20 10:23:03;;;;;;;1.98;1.05;;;15.50;62.80;;;;;;5041499;28;20493;-57
2022/12/20 10:25:32;;;;;;;4.10;0.90;;;15.50;62.80;;;;;;5036828;28;20045;-56
2022/12/20 10:28:08;;;;;;;1.85;0.88;;;15.50;62.70;;;;;;5034263;28;20426;-55
2022/12/20 10:30:35;;;;;;;1.10;1.00;;;15.50;62.60;;;;;;5024296;28;20064;-58
2022/12/20 10:33:02;;;;;;;1.55;1.23;;;15.50;62.60;;;;;;5037797;28;20041;-55
2022/12/20 10:35:42;;;;;;;2.30;0.85;;;15.50;62.80;;;;;;5045192;28;20494;-57
2022/12/20 10:38:16;;;;;;;1.10;1.00;;;15.60;62.60;;;;;;5037470;28;20121;-58
2022/12/20 10:41:02;;;;;;;1.40;0.85;;;15.50;62.80;;;;;;5044660;28;20080;-57
2022/12/20 10:43:52;;;;;;;2.20;1.08;;;15.60;62.70;;;;;;5045893;28;20048;-57
2022/12/20 10:46:22;;;;;;;1.77;1.33;;;15.60;62.80;;;;;;5016965;28;20107;-57
2022/12/20 10:48:51;;;;;;;1.10;1.00;;;15.60;62.90;;;;;;5046050;28;20378;-56
2022/12/20 10:51:21;;;;;;;2.40;1.02;;;15.70;62.90;;;;;;5037997;28;20037;-58
2022/12/20 10:53:58;;;;;;;2.88;1.55;;;15.60;63.00;;;;;;5039570;28;20053;-57
2022/12/20 10:56:26;;;;;;;2.08;1.25;;;15.60;63.00;;;;;;5040305;28;20073;-56
2022/12/20 10:59:01;;;;;;;4.00;1.63;;;15.60;63.70;;;;;;5040632;28;20116;-55
2022/12/20 11:01:30;;;;;;;1.77;1.15;;;15.60;63.20;;;;;;5041141;28;20095;-58
2022/12/20 11:04:03;;;;;;;2.25;1.27;;;15.70;63.20;;;;;;5033825;28;20548;-57
2022/12/20 11:06:36;;;;;;;1.85;1.20;;;15.70;63.10;;;;;;5040297;28;20125;-57
2022/12/20 11:09:18;;;;;;;;;;;15.70;63.10;;;;;;5046925;28;20555;-57
2022/12/20 11:12:03;;;;;;;1.92;1.23;;;15.80;63.20;;;;;;5044384;28;20463;-57
2022/12/20 11:14:33;;;;;;;1.75;1.10;;;15.80;62.80;;;;;;5034481;28;20151;-58
2022/12/20 11:17:27;;;;;;;1.98;1.02;;;15.80;63.10;;;;;;5043677;28;20049;-57
2022/12/20 11:20:17;;;;;;;1.92;0.90;;;15.80;62.90;;;;;;5032900;28;20448;-58
2022/12/20 11:22:59;;;;;;;1.38;1.00;;;15.80;63.20;;;;;;5041605;28;20120;-57
2022/12/20 11:25:28;;;;;;;1.88;0.98;;;15.90;63.50;;;;;;5041091;28;20037;-57
2022/12/20 11:28:13;;;;;;;1.25;1.15;;;15.90;63.50;;;;;;5044158;28;20037;-57
2022/12/20 11:30:51;;;;;;;1.88;0.90;;;15.90;63.40;;;;;;5052231;28;20045;-58
2022/12/20 11:33:42;;;;;;;1.83;1.05;;;15.90;64.00;;;;;;5047736;28;20044;-58
2022/12/20 11:36:19;;;;;;;5.00;2.13;;;16.00;63.40;;;;;;5047872;28;20064;-57
2022/12/20 11:39:03;;;;;;;2.25;1.10;;;16.00;63.30;;;;;;5045019;28;20033;-58
2022/12/20 11:41:36;;;;;;;2.92;1.20;;;16.00;63.20;;;;;;5026600;28;20113;-57
2022/12/20 11:44:39;;;;;;;3.08;1.73;;;16.00;63.30;;;;;;5049553;28;20029;-59
2022/12/20 11:47:49;;;;;;;2.08;1.00;;;16.10;62.90;;;;;;5040397;28;20034;-58
2022/12/20 11:50:34;;;;;;;2.15;1.02;;;16.10;62.70;;;;;;5033700;28;20044;-58
2022/12/20 11:53:08;;;;;;;2.67;1.00;;;16.10;62.90;;;;;;5043841;28;20041;-58
2022/12/20 11:55:41;;;;;;;1.73;1.15;;;16.10;62.70;;;;;;5045549;28;20409;-58
2022/12/20 11:58:26;;;;;;;1.00;0.90;;;16.20;62.80;;;;;;5051919;28;20402;-57
2022/12/20 12:01:09;;;;;;;2.10;1.20;;;16.20;62.60;;;;;;5048795;28;20045;-58
2022/12/20 12:03:38;;;;;;;1.55;1.17;;;16.20;62.70;;;;;;5050084;28;20041;-58
2022/12/20 12:06:15;;;;;;;3.90;1.40;;;16.20;63.00;;;;;;5043729;28;20025;-57
2022/12/20 12:09:05;;;;;;;2.20;1.45;;;16.20;64.00;;;;;;5038044;28;20055;-58
2022/12/20 12:11:37;;;;;;;2.42;1.50;;;16.20;64.80;;;;;;5043592;28;20041;-57
2022/12/20 12:14:43;;;;;;;2.05;1.13;;;16.10;64.80;;;;;;5050737;28;20115;-55
2022/12/20 12:17:25;;;;;;;2.13;1.23;;;16.00;65.40;;;;;;5046205;28;20120;-58
2022/12/20 12:19:56;;;;;;;2.08;1.20;;;15.80;65.90;;;;;;5051821;28;20048;-57
2022/12/20 12:22:33;;;;;;;1.98;1.17;;;15.80;65.80;;;;;;5048993;28;20039;-56
2022/12/20 12:25:10;;;;;;;3.30;1.33;;;15.60;66.80;;;;;;5043765;28;20065;-57
2022/12/20 12:27:37;;;;;;;1.55;1.23;;;15.50;67.20;;;;;;5042893;28;20047;-58
2022/12/20 12:30:05;;;;;;;1.77;1.23;;;15.40;67.10;;;;;;5044230;28;20098;-58
2022/12/20 12:33:01;;;;;;;2.80;1.38;;;15.30;67.40;;;;;;5045472;28;20125;-58
2022/12/20 12:36:00;;;;;;;2.17;1.30;;;15.20;68.60;;;;;;5041084;28;20613;-58
2022/12/20 12:39:08;;;;;;;1.50;1.30;;;15.10;68.90;;;;;;5012467;28;20065;-57
2022/12/20 12:41:35;;;;;;;2.35;1.60;;;15.10;69.30;;;;;;4978878;28;20472;-57
2022/12/20 12:44:28;;;;;;;3.10;1.70;;;15.00;68.50;;;;;;5047157;28;20116;-57
2022/12/20 12:47:00;;;;;;;2.70;1.38;;;14.90;70.00;;;;;;5029388;28;20040;-55
2022/12/20 12:49:30;;;;;;;1.60;1.30;;;14.90;69.50;;;;;;5045580;28;20467;-59
2022/12/20 12:52:04;;;;;;;3.40;1.55;;;14.80;69.60;;;;;;5043781;28;20037;-56
2022/12/20 12:54:42;;;;;;;3.20;1.70;;;14.80;70.40;;;;;;5047655;28;20067;-57
2022/12/20 12:57:15;;;;;;;3.50;1.90;;;14.80;70.70;;;;;;5042051;28;20057;-58
2022/12/20 12:59:45;;;;;;;2.33;1.27;;;14.70;70.70;;;;;;5037614;28;20547;-58
2022/12/20 13:02:12;;;;;;;4.55;1.83;;;14.70;70.70;;;;;;5034963;28;20127;-58
2022/12/20 13:05:01;;;;;;;2.80;1.55;;;14.70;70.70;;;;;;5038444;28;20037;-58
2022/12/20 13:07:48;;;;;;;2.83;1.35;;;14.70;71.60;;;;;;5045378;28;20037;-58
2022/12/20 13:10:17;;;;;;;2.70;1.60;;;14.70;71.60;;;;;;5023839;28;20045;-57
2022/12/20 13:13:00;;;;;;;2.08;1.30;;;14.60;71.10;;;;;;5035370;28;20121;-58
2022/12/20 13:15:28;;;;;;;4.63;1.83;;;14.60;71.60;;;;;;5037714;28;20061;-58
2022/12/20 13:18:12;;;;;;;2.13;1.35;;;14.50;71.00;;;;;;5045294;28;20098;-56
2022/12/20 13:20:39;;;;;;;1.83;1.63;;;14.60;72.00;;;;;;5040270;28;20069;-59
2022/12/20 13:23:11;;;;;;;2.33;1.60;;;14.50;71.00;;;;;;5049078;28;20148;-57
2022/12/20 13:25:44;;;;;;;3.25;1.77;;;14.50;71.50;;;;;;5040518;28;20128;-57